Roby, Missouri
Current Conditions -  °F | °C
As of 4:58 PM on Monday 24 Nov 2014 (Local Time) from KTBN Reporting Station
Scattered Clouds Scattered Clouds  
Wind Chill: 37°   Ceiling: Unl
Heat Index: 43°   Visibility: 10mi
Dew Point: 29°   Wind: 9mph
Humidity: 58%   Direction: 270°W
Pressure: 29.86"   Gusts: NA
Location:  37.52°N, 92.14°W
Report Text: KTBN 242258Z AUTO 27008KT 10SM SCT055 06/M02 A2986 RMK AO2 SLP120 T00591019
Loading
Personal Weather Stations






























Interactive Weather Map New forecast layout! Learn more

10-Day Weather Forecast

Advertisements
Track Severe Weather on mobile